Station: Snowtown

  Atmospheric Gas Attenuation - ITU Rec 676-11   --------------- db/100km ---------------
Date Time Temp RH % AH g/m3 Dew Point Wind Direction Speed kph Gust kph Barometer mB Rainfall Since 9am 24GHz 47GHz 76GHz 122GHz 134GHz 241GHz
21 18:30 12.8 85 9.52 10.3 28 37 1008 1.6 21.6 27.5 43.9 115.4 111.7 385.1
21 18:20 12.6 87 9.63 10.5 28 35 1008 1.6 21.9 27.8 44.4 116.9 113.5 391.4
21 18:10 12.5 88 9.68 10.6 28 32 1008 1.6 22.0 27.9 44.7 117.6 114.4 394.3
21 18:00 12.8 86 9.63 10.5 35 54 1007.9 1.6 21.9 27.7 44.3 116.6 113.2 390.3
21 17:50 14 74 8.93 9.4 28 33 1007.9 0.8 20.3 26.2 40.8 107.2 102.1 351.4
21 17:40 14.4 70 8.65 9 20 22 1007.2 0 19.7 25.6 39.4 103.6 97.8 336.6
21 17:30 15 66 8.46 8.7 22 30 1007.2 0 19.2 25.1 38.4 100.8 94.6 325.4
21 17:20 15.2 66 8.57 8.9 22 24 1006.8 0 19.5 25.2 38.7 101.6 95.7 329.4
21 17:10 16.6 54 7.63 7.3 22 28 1006.9 0 17.4 23.4 34.5 90.4 82.4 282.8
21 17:00 17.2 49 7.18 6.4 22 28 1006.5 0 16.4 22.6 32.6 85.3 76.3 261.6
21 16:50 17 54 7.81 7.6 20 22 1006.5 0 17.8 23.5 35.0 91.7 84.1 288.9
21 16:40 17.8 48 7.28 6.7 26 30 1006.2 0 16.6 22.5 32.7 85.6 76.9 263.8
21 16:30 18.5 41 6.49 5 30 41 1006.1 0 14.9 21.2 29.6 77.5 67.1 229.4
21 16:20 19.2 38 6.27 4.6 30 35 1005.9 0 14.4 20.8 28.6 74.8 64.0 218.7
21 16:10 19.6 35 5.91 3.7 28 33 1005.6 0 13.7 20.2 27.3 71.2 59.7 203.6
21 16:00 19.9 33 5.67 3.2 32 48 1005.5 0 13.1 19.8 26.4 68.8 56.9 193.7
21 15:50 20.7 30 5.4 2.5 32 43 1005.3 0 12.6 19.3 25.3 65.8 53.4 181.7
21 15:40 20.5 31 5.52 2.8 35 43 1005.3 0 12.8 19.5 25.7 67.0 54.8 186.6
21 15:30 21.2 30 5.56 3 37 50 1005.3 0 12.9 19.4 25.6 66.8 54.8 186.5
21 15:20 21.3 29 5.41 2.6 37 56 1005.3 0 12.6 19.2 25.1 65.4 53.2 180.8
21 15:10 21.3 28 5.22 2.1 44 52 1005.3 0 12.2 18.9 24.5 63.8 51.2 173.8
21 15:00 21.4 27 5.06 1.7 39 56 1005.2 0 11.8 18.7 24.0 62.3 49.4 167.7
21 14:50 21.7 26 4.96 1.4 41 52 1005.2 0 11.6 18.5 23.6 61.3 48.2 163.5
21 14:40 21.6 25 4.74 0.8 41 52 1005.3 0 11.2 18.2 22.9 59.5 46.0 155.7
21 14:30 21.5 26 4.9 1.2 43 61 1005.3 0 11.5 18.5 23.4 60.9 47.7 161.7
21 14:20 21.8 26 4.99 1.5 39 46 1005.4 0 11.7 18.5 23.6 61.5 48.5 164.4
21 14:10 20.9 26 4.73 0.7 43 50 1005.4 0 11.2 18.4 23.1 60.0 46.3 156.7
21 14:00 21.7 25 4.77 0.8 43 59 1005.4 0 11.2 18.3 23.0 59.7 46.3 156.6
21 13:50 21.3 26 4.85 1 44 56 1005.5 0 11.4 18.5 23.4 60.7 47.3 160.3
21 13:40 20.9 26 4.73 0.7 48 59 1005.6 0 11.2 18.4 23.1 60.0 46.3 156.7
21 13:30 21.1 25 4.61 0.3 43 59 1005.6 0 10.9 18.2 22.7 58.9 45.0 152.0
21 13:20 20.9 26 4.73 0.7 44 52 1005.5 0 11.2 18.4 23.1 60.0 46.3 156.7
21 13:10 20.9 26 4.73 0.7 44 50 1005.6 0 11.2 18.4 23.1 60.0 46.3 156.7
21 13:00 20.3 27 4.75 0.7 43 61 1005.8 0 11.2 18.5 23.3 60.6 46.9 158.6
21 12:50 21 28 5.13 1.8 37 46 1005.8 0 12.0 18.9 24.3 63.3 50.4 171.1
21 12:40 20.6 28 5.01 1.5 44 54 1006 0 11.7 18.8 24.1 62.6 49.4 167.6
21 12:30 19.8 28 4.78 0.8 46 63 1006.2 0 11.3 18.7 23.6 61.3 47.5 160.7
21 12:20 20.2 28 4.9 1.1 43 52 1006.3 0 11.5 18.8 23.8 62.0 48.5 164.4
21 12:10 19.8 27 4.61 0.3 46 52 1006.3 0 10.9 18.5 23.0 59.8 45.7 154.5
21 12:00 20.4 28 4.95 1.3 46 67 1006.3 0 11.6 18.8 23.9 62.3 48.9 165.8
21 11:50 19.5 27 4.53 0 52 63 1006.4 0 10.8 18.4 22.9 59.4 45.1 152.1
21 11:40 19.5 27 4.53 0 54 63 1006.5 0 10.8 18.4 22.9 59.4 45.1 152.1
21 11:30 19.5 28 4.7 0.5 48 69 1006.5 0 11.1 18.6 23.4 60.8 46.9 158.4
21 11:20 19 27 4.4 -0.4 52 59 1006.7 0 10.5 18.4 22.6 58.7 44.0 148.3
21 11:10 19.5 27 4.53 0 46 61 1006.8 0 10.8 18.4 22.9 59.4 45.1 152.2
21 11:00 18.7 26 4.16 -1.2 50 72 1006.9 0 10.0 18.1 21.9 56.9 41.7 140.1
21 10:50 18.8 27 4.35 -0.6 54 61 1006.9 0 10.4 18.3 22.5 58.4 43.6 146.9
21 10:40 18.8 27 4.35 -0.6 48 57 1006.9 0 10.4 18.3 22.5 58.4 43.6 146.9
21 10:30 18.5 26 4.11 -1.3 50 65 1007.1 0 9.9 18.1 21.9 56.6 41.3 138.6
21 10:20 18.9 25 4.05 -1.5 48 59 1007.1 0 9.8 17.9 21.6 55.8 40.5 135.8
21 10:10 18.7 26 4.16 -1.2 52 61 1007.2 0 10.0 18.1 22.0 56.9 41.7 140.1
21 10:00 18.5 25 3.96 -1.9 46 65 1007.2 0 9.6 17.9 21.4 55.4 39.7 133.2
21 09:50 18.7 26 4.16 -1.2 39 52 1007.1 0 10.0 18.1 22.0 56.9 41.7 140.1
21 09:40 18.3 24 3.75 -2.6 37 41 1007 0 9.2 17.7 20.8 53.7 37.7 125.9
21 09:30 17.9 27 4.12 -1.3 43 56 1007.1 0 10.0 18.2 22.0 57.1 41.7 140.0
21 09:20 17.9 29 4.43 -0.4 33 39 1007.1 0 10.6 18.6 23.0 59.7 44.9 151.4
21 09:10 17.3 28 4.12 -1.4 41 46 1007.1 0 10.0 18.3 22.2 57.5 42.0 141.0
21 09:00 17.1 25 3.64 -3.1 35 54 1007.3 0 9.0 17.8 20.7 53.6 37.1 123.7
21 08:50 16.9 29 4.17 -1.2 28 35 1007.2 0 10.1 18.5 22.5 58.2 42.7 143.6
21 08:40 16.2 30 4.14 -1.4 37 41 1007.3 0 10.1 18.6 22.6 58.5 42.8 143.6
21 08:30 15.8 30 4.04 -1.7 33 50 1007.3 0 9.9 18.5 22.3 57.9 41.9 140.6
21 08:20 15.8 32 4.31 -0.8 28 33 1007.2 0 10.4 18.9 23.2 60.2 44.8 150.8
21 08:10 14.2 44 5.37 2.1 22 28 1007.2 0 12.7 20.7 27.3 71.1 57.7 195.7
21 08:00 13.3 50 5.78 3.1 24 30 1007.2 0 13.6 21.5 29.0 75.8 63.1 214.9
21 07:50 12.1 56 6.01 3.6 22 28 1007.2 0 14.1 22.1 30.3 79.2 66.9 227.9
21 07:40 11.3 58 5.92 3.3 19 22 1007.4 0 14.0 22.2 30.3 79.1 66.5 226.3
21 07:30 10.9 60 5.97 3.5 17 20 1007.5 0 14.1 22.3 30.6 80.0 67.4 229.6
21 07:20 9.5 65 5.92 3.3 15 19 1007.4 0 14.0 22.6 31.0 80.9 68.0 231.5
21 07:10 8.1 70 5.83 3 20 22 1007.5 0 13.9 22.8 31.2 81.4 68.1 231.6
21 07:00 7.3 71 5.61 2.4 17 20 1007.5 0 13.5 22.7 30.6 80.0 66.0 224.0
21 06:50 6.9 71 5.47 2 13 17 1007.4 0 13.2 22.6 30.2 78.9 64.5 218.8
21 06:40 5.6 75 5.31 1.5 17 17 1007.6 0 12.9 22.6 30.1 78.6 63.5 215.2
21 06:30 5.4 75 5.24 1.3 15 19 1007.5 0 12.7 22.6 29.9 78.0 62.8 212.6
21 06:20 4.3 77 5 0.6 15 15 1007.5 0 12.2 22.5 29.4 76.6 60.5 204.6
21 06:10 5.1 72 4.93 0.5 13 15 1007.4 0 12.1 22.2 28.8 75.1 59.0 199.4
21 06:00 5.7 69 4.91 0.5 17 20 1007.4 0 12.0 22.0 28.5 74.3 58.3 197.0
21 05:50 6 72 5.23 1.3 19 19 1007.4 0 12.7 22.4 29.6 77.3 62.2 210.5
21 05:40 5.3 77 5.34 1.6 15 17 1007.4 0 12.9 22.8 30.3 79.2 64.1 217.4
21 05:30 4.7 78 5.2 1.2 15 19 1007.3 0 12.7 22.7 30.0 78.3 62.8 212.6
21 05:20 4.7 78 5.2 1.2 15 15 1007.4 0 12.7 22.7 30.0 78.3 62.8 212.6
21 05:10 4.2 79 5.09 0.9 17 17 1007.5 0 12.4 22.6 29.8 77.6 61.8 208.9
21 04:50 4.7 76 5.07 0.8 13 13 1007.5 0 12.4 22.5 29.5 76.9 61.1 206.7
21 04:40 6.8 72 5.51 2.1 15 17 1007.5 0 13.3 22.7 30.4 79.4 65.1 220.9
21 04:30 6.3 74 5.48 2 17 19 1007.4 0 13.2 22.7 30.5 79.6 65.1 220.9
21 04:20 7.2 69 5.42 1.9 17 19 1007.4 0 13.1 22.4 29.9 78.1 63.6 215.8
21 04:10 7.4 71 5.65 2.5 19 20 1007.4 0 13.5 22.7 30.7 80.3 66.4 225.5
21 04:00 6.3 75 5.55 2.2 17 19 1007.5 0 13.4 22.8 30.8 80.4 66.0 224.1
21 03:50 5.8 76 5.45 1.9 15 17 1007.7 0 13.2 22.8 30.6 79.8 65.2 221.0
21 03:40 6.1 74 5.41 1.8 13 13 1007.7 0 13.1 22.7 30.3 79.1 64.4 218.4
21 03:30 6.6 72 5.44 1.9 15 19 1007.6 0 13.1 22.6 30.2 78.9 64.4 218.3
21 03:20 6.8 69 5.28 1.5 17 17 1007.6 0 12.8 22.3 29.5 77.1 62.2 210.7
21 03:10 7.6 62 5 0.8 13 13 1007.6 0 12.1 21.7 28.2 73.5 58.1 196.3
21 03:00 9.9 57 5.32 1.8 17 20 1007.5 0 12.7 21.6 28.6 74.5 60.3 204.3
21 02:50 10.5 54 5.24 1.6 19 20 1007.5 0 12.6 21.3 28.1 73.2 58.8 199.4
21 02:40 10.9 52 5.17 1.4 20 22 1007.5 0 12.4 21.2 27.7 72.1 57.7 195.5
21 02:30 10.9 52 5.17 1.4 19 24 1007.4 0 12.4 21.1 27.7 72.1 57.7 195.5
21 02:20 11.1 51 5.14 1.4 20 22 1007.3 0 12.3 21.1 27.5 71.6 57.2 193.7
21 02:10 11.3 50 5.1 1.3 20 24 1007.2 0 12.2 20.9 27.3 71.1 56.6 191.6
21 02:00 10.9 52 5.17 1.4 19 22 1007.1 0 12.4 21.1 27.7 72.1 57.7 195.4
21 01:50 10.5 55 5.34 1.9 20 24 1007.2 0 12.8 21.5 28.4 74.1 60.0 203.6

Last Refresh: 21-Sep-2020 18:40:52

Most of the information presented on this site is sourced from the Bureau of Meteorology.  Copyright in all material sourced from the Bureau of Meteorology resides with the Commonwealth of Australia.